UAL121 KIAH-KDEN
Flight info
| Callsign | UAL121 |
|---|---|
| Flight time | 2h 21m |
| Altitude | 34000 |
| Route | STYCK8 DOLEY MRMAC ROLLS HALEN NIIXX3 |
| Aircraft | B739/M-SDE2E3FGHIRWXY/LB1 |
Departure
| Time | 2026-05-06 00:11 |
|---|---|
| Airport | George Bush Intercontinental Airport (KIAH) |
Arrival
| Time | 2026-05-06 02:32 |
|---|---|
| Airport | Denver International Airport (KDEN) |
| Time | Latitude | Longitude | Altitude | Speed | Heading |
|---|---|---|---|---|---|
| 2026-05-05 23:39 | 29.98816 | -95.34876 | 101 ft | 0 kts | 270° |
| 2026-05-05 23:56 | 29.98816 | -95.34856 | 101 ft | 4 kts | 271° |
| 2026-05-05 23:57 | 29.98815 | -95.34828 | 102 ft | 2 kts | 285° |
| 2026-05-05 23:57 | 29.98809 | -95.34816 | 102 ft | 2 kts | 333° |
| 2026-05-05 23:57 | 29.98798 | -95.34812 | 99 ft | 2 kts | 358° |
| 2026-05-05 23:57 | 29.98787 | -95.34812 | 100 ft | 2 kts | 1° |
| 2026-05-05 23:58 | 29.98785 | -95.34812 | 102 ft | 0 kts | 1° |
| 2026-05-06 00:05 | 29.98799 | -95.34812 | 101 ft | 9 kts | 1° |
| 2026-05-06 00:06 | 29.98865 | -95.34810 | 101 ft | 11 kts | 1° |
| 2026-05-06 00:06 | 29.98901 | -95.34810 | 101 ft | 0 kts | 1° |
| 2026-05-06 00:07 | 29.98904 | -95.34810 | 101 ft | 4 kts | 0° |
| 2026-05-06 00:07 | 29.98986 | -95.34831 | 102 ft | 14 kts | 314° |
| 2026-05-06 00:07 | 29.98995 | -95.34942 | 102 ft | 14 kts | 269° |
| 2026-05-06 00:07 | 29.98995 | -95.35051 | 102 ft | 13 kts | 270° |
| 2026-05-06 00:08 | 29.98995 | -95.35155 | 102 ft | 13 kts | 270° |
| 2026-05-06 00:08 | 29.98996 | -95.35261 | 102 ft | 14 kts | 271° |
| 2026-05-06 00:08 | 29.98997 | -95.35379 | 102 ft | 15 kts | 269° |
| 2026-05-06 00:08 | 29.98953 | -95.35481 | 102 ft | 13 kts | 204° |
| 2026-05-06 00:09 | 29.98889 | -95.35550 | 103 ft | 13 kts | 238° |
| 2026-05-06 00:09 | 29.98848 | -95.35635 | 103 ft | 6 kts | 241° |
| 2026-05-06 00:09 | 29.98835 | -95.35661 | 103 ft | 0 kts | 241° |
| 2026-05-06 00:10 | 29.98804 | -95.35727 | 104 ft | 13 kts | 233° |
| 2026-05-06 00:10 | 29.98721 | -95.35739 | 105 ft | 13 kts | 154° |
| 2026-05-06 00:10 | 29.98555 | -95.35638 | 103 ft | 62 kts | 152° |
| 2026-05-06 00:11 | 29.97929 | -95.35260 | 103 ft | 138 kts | 152° |
| 2026-05-06 00:11 | 29.96921 | -95.34637 | 266 ft | 183 kts | 152° |
| 2026-05-06 00:11 | 29.95697 | -95.33877 | 732 ft | 212 kts | 153° |
| 2026-05-06 00:11 | 29.94300 | -95.33199 | 1340 ft | 226 kts | 172° |
| 2026-05-06 00:12 | 29.92775 | -95.33412 | 1888 ft | 220 kts | 203° |
| 2026-05-06 00:12 | 29.91619 | -95.34565 | 2418 ft | 227 kts | 234° |
| 2026-05-06 00:12 | 29.91176 | -95.36317 | 2920 ft | 237 kts | 266° |
| 2026-05-06 00:12 | 29.91587 | -95.38123 | 3443 ft | 250 kts | 296° |
| 2026-05-06 00:13 | 29.92850 | -95.39668 | 3981 ft | 267 kts | 324° |
| 2026-05-06 00:13 | 29.94579 | -95.40585 | 4570 ft | 281 kts | 338° |
| 2026-05-06 00:13 | 29.96433 | -95.41350 | 5091 ft | 283 kts | 338° |
| 2026-05-06 00:13 | 29.98300 | -95.42105 | 5651 ft | 287 kts | 337° |
| 2026-05-06 00:14 | 30.00191 | -95.42869 | 6194 ft | 288 kts | 337° |
| 2026-05-06 00:14 | 30.02085 | -95.43641 | 6704 ft | 290 kts | 337° |
| 2026-05-06 00:14 | 30.03988 | -95.44421 | 7205 ft | 291 kts | 336° |
| 2026-05-06 00:14 | 30.05897 | -95.45209 | 7722 ft | 292 kts | 336° |
| 2026-05-06 00:15 | 30.07811 | -95.46003 | 8232 ft | 293 kts | 336° |
| 2026-05-06 00:15 | 30.09733 | -95.46803 | 8782 ft | 295 kts | 336° |
| 2026-05-06 00:15 | 30.11673 | -95.47613 | 9323 ft | 298 kts | 336° |
| 2026-05-06 00:15 | 30.13638 | -95.48434 | 9858 ft | 302 kts | 336° |
| 2026-05-06 00:16 | 30.15622 | -95.49264 | 10376 ft | 305 kts | 335° |
| 2026-05-06 00:16 | 30.17643 | -95.50110 | 10901 ft | 312 kts | 335° |
| 2026-05-06 00:16 | 30.19708 | -95.50976 | 11439 ft | 319 kts | 335° |
| 2026-05-06 00:16 | 30.21815 | -95.51860 | 11982 ft | 325 kts | 334° |
| 2026-05-06 00:17 | 30.23963 | -95.52761 | 12532 ft | 331 kts | 334° |
| 2026-05-06 00:17 | 30.26146 | -95.53676 | 13089 ft | 336 kts | 334° |
| 2026-05-06 00:17 | 30.28357 | -95.54604 | 13656 ft | 341 kts | 334° |
| 2026-05-06 00:17 | 30.30597 | -95.55544 | 14161 ft | 345 kts | 334° |
| 2026-05-06 00:18 | 30.32868 | -95.56497 | 14665 ft | 349 kts | 334° |
| 2026-05-06 00:18 | 30.35155 | -95.57457 | 15186 ft | 352 kts | 334° |
| 2026-05-06 00:18 | 30.37475 | -95.58431 | 15718 ft | 355 kts | 334° |
| 2026-05-06 00:18 | 30.39808 | -95.59412 | 16246 ft | 358 kts | 333° |
| 2026-05-06 00:19 | 30.42160 | -95.60401 | 16792 ft | 361 kts | 333° |
| 2026-05-06 00:19 | 30.44529 | -95.61398 | 17345 ft | 363 kts | 333° |
| 2026-05-06 00:19 | 30.46879 | -95.62387 | 17902 ft | 365 kts | 333° |
| 2026-05-06 00:19 | 30.49271 | -95.63394 | 18426 ft | 366 kts | 333° |
| 2026-05-06 00:20 | 30.51667 | -95.64404 | 18926 ft | 367 kts | 333° |
| 2026-05-06 00:20 | 30.54065 | -95.65444 | 19427 ft | 367 kts | 330° |
| 2026-05-06 00:20 | 30.56401 | -95.66615 | 19939 ft | 365 kts | 328° |
| 2026-05-06 00:20 | 30.58708 | -95.67853 | 20468 ft | 365 kts | 327° |
| 2026-05-06 00:21 | 30.61004 | -95.69109 | 20998 ft | 365 kts | 326° |
| 2026-05-06 00:21 | 30.63303 | -95.70364 | 21542 ft | 365 kts | 326° |
| 2026-05-06 00:21 | 30.65606 | -95.71615 | 22095 ft | 365 kts | 326° |
| 2026-05-06 00:21 | 30.67903 | -95.72855 | 22648 ft | 364 kts | 326° |
| 2026-05-06 00:22 | 30.70201 | -95.74091 | 23235 ft | 363 kts | 326° |
| 2026-05-06 00:22 | 30.72493 | -95.75321 | 23733 ft | 362 kts | 325° |
| 2026-05-06 00:22 | 30.74778 | -95.76546 | 24153 ft | 363 kts | 325° |
| 2026-05-06 00:22 | 30.77079 | -95.77783 | 24513 ft | 366 kts | 325° |
| 2026-05-06 00:23 | 30.78614 | -95.78608 | 24758 ft | 368 kts | 325° |
| 2026-05-06 00:23 | 30.80945 | -95.79860 | 25138 ft | 370 kts | 325° |
| 2026-05-06 00:23 | 30.83288 | -95.81118 | 25500 ft | 372 kts | 324° |
| 2026-05-06 00:23 | 30.85644 | -95.82383 | 25883 ft | 374 kts | 324° |
| 2026-05-06 00:24 | 30.88007 | -95.83652 | 26260 ft | 375 kts | 324° |
| 2026-05-06 00:24 | 30.90375 | -95.84924 | 26684 ft | 375 kts | 324° |
| 2026-05-06 00:24 | 30.92722 | -95.86180 | 27347 ft | 368 kts | 323° |
| 2026-05-06 00:24 | 30.95034 | -95.87418 | 27983 ft | 362 kts | 323° |
| 2026-05-06 00:25 | 30.97304 | -95.88636 | 28636 ft | 356 kts | 322° |
| 2026-05-06 00:25 | 30.99531 | -95.89834 | 29324 ft | 349 kts | 322° |
| 2026-05-06 00:25 | 31.01714 | -95.91009 | 29971 ft | 342 kts | 321° |
| 2026-05-06 00:25 | 31.03848 | -95.92161 | 30546 ft | 334 kts | 321° |
| 2026-05-06 00:26 | 31.05925 | -95.93282 | 31135 ft | 325 kts | 320° |
| 2026-05-06 00:26 | 31.07953 | -95.94377 | 31585 ft | 321 kts | 320° |
| 2026-05-06 00:26 | 31.10013 | -95.95504 | 31571 ft | 332 kts | 320° |
| 2026-05-06 00:26 | 31.12137 | -95.96660 | 31583 ft | 343 kts | 322° |
| 2026-05-06 00:27 | 31.14407 | -95.97720 | 31587 ft | 359 kts | 326° |
| 2026-05-06 00:27 | 31.16813 | -95.98681 | 31584 ft | 372 kts | 328° |
| 2026-05-06 00:27 | 31.19310 | -95.99625 | 31595 ft | 382 kts | 329° |
| 2026-05-06 00:27 | 31.21866 | -96.00577 | 31790 ft | 385 kts | 329° |
| 2026-05-06 00:28 | 31.24390 | -96.01506 | 32417 ft | 377 kts | 328° |
| 2026-05-06 00:28 | 31.26832 | -96.02413 | 32962 ft | 369 kts | 328° |
| 2026-05-06 00:28 | 31.29244 | -96.03320 | 33560 ft | 360 kts | 327° |
| 2026-05-06 00:28 | 31.31619 | -96.04229 | 33765 ft | 362 kts | 327° |
| 2026-05-06 00:29 | 31.34021 | -96.05169 | 33772 ft | 366 kts | 327° |
| 2026-05-06 00:29 | 31.38914 | -96.07090 | 33803 ft | 376 kts | 327° |
| 2026-05-06 00:30 | 31.43942 | -96.09058 | 33796 ft | 386 kts | 327° |
| 2026-05-06 00:30 | 31.49107 | -96.11075 | 33798 ft | 396 kts | 328° |
| 2026-05-06 00:31 | 31.54398 | -96.13139 | 33793 ft | 406 kts | 328° |
| 2026-05-06 00:31 | 31.59813 | -96.15255 | 33793 ft | 415 kts | 328° |
| 2026-05-06 00:32 | 31.65342 | -96.17415 | 33793 ft | 423 kts | 328° |
| 2026-05-06 00:32 | 31.70970 | -96.19618 | 33794 ft | 430 kts | 328° |
| 2026-05-06 00:33 | 31.76674 | -96.21852 | 33787 ft | 434 kts | 329° |
| 2026-05-06 00:33 | 31.82408 | -96.24096 | 33783 ft | 434 kts | 328° |
| 2026-05-06 00:34 | 31.88130 | -96.26343 | 33771 ft | 433 kts | 328° |
| 2026-05-06 00:34 | 31.93841 | -96.28592 | 33785 ft | 433 kts | 328° |
| 2026-05-06 00:35 | 31.99506 | -96.30826 | 33787 ft | 432 kts | 328° |
| 2026-05-06 00:35 | 32.05196 | -96.33073 | 33794 ft | 431 kts | 328° |
| 2026-05-06 00:36 | 32.10872 | -96.35319 | 33787 ft | 430 kts | 328° |
| 2026-05-06 00:36 | 32.16539 | -96.37562 | 33790 ft | 429 kts | 328° |
| 2026-05-06 00:37 | 32.21923 | -96.40249 | 33787 ft | 412 kts | 319° |
| 2026-05-06 00:37 | 32.26953 | -96.43484 | 33779 ft | 411 kts | 319° |
| 2026-05-06 00:38 | 32.31987 | -96.46709 | 33764 ft | 412 kts | 319° |
| 2026-05-06 00:38 | 32.37038 | -96.49914 | 33754 ft | 413 kts | 319° |
| 2026-05-06 00:39 | 32.42109 | -96.53122 | 33751 ft | 413 kts | 320° |
| 2026-05-06 00:39 | 32.47184 | -96.56331 | 33745 ft | 414 kts | 320° |
| 2026-05-06 00:40 | 32.52271 | -96.59551 | 33754 ft | 415 kts | 320° |
| 2026-05-06 00:40 | 32.57328 | -96.62757 | 33762 ft | 416 kts | 320° |
| 2026-05-06 00:41 | 32.62432 | -96.65997 | 33762 ft | 417 kts | 320° |
| 2026-05-06 00:41 | 32.67549 | -96.69249 | 33771 ft | 418 kts | 320° |
| 2026-05-06 00:42 | 32.72672 | -96.72510 | 33761 ft | 419 kts | 319° |
| 2026-05-06 00:42 | 32.77808 | -96.75782 | 33782 ft | 419 kts | 319° |
| 2026-05-06 00:43 | 32.82946 | -96.79061 | 33779 ft | 419 kts | 319° |
| 2026-05-06 00:43 | 32.88078 | -96.82340 | 33786 ft | 420 kts | 319° |
| 2026-05-06 00:44 | 32.93234 | -96.85639 | 33775 ft | 420 kts | 319° |
| 2026-05-06 00:44 | 32.98327 | -96.88901 | 33773 ft | 420 kts | 319° |
| 2026-05-06 00:45 | 33.03529 | -96.92238 | 33770 ft | 420 kts | 319° |
| 2026-05-06 00:45 | 33.08597 | -96.95493 | 33765 ft | 420 kts | 319° |
| 2026-05-06 00:46 | 33.13812 | -96.98847 | 33778 ft | 419 kts | 319° |
| 2026-05-06 00:46 | 33.18843 | -97.02087 | 33786 ft | 418 kts | 318° |
| 2026-05-06 00:47 | 33.24023 | -97.05428 | 33785 ft | 418 kts | 318° |
| 2026-05-06 00:47 | 33.29135 | -97.08730 | 33784 ft | 417 kts | 318° |
| 2026-05-06 00:48 | 33.34236 | -97.12029 | 33786 ft | 417 kts | 318° |
| 2026-05-06 00:48 | 33.39339 | -97.15334 | 33781 ft | 417 kts | 318° |
| 2026-05-06 00:49 | 33.44429 | -97.18634 | 33814 ft | 416 kts | 318° |
| 2026-05-06 00:49 | 33.49519 | -97.21940 | 33828 ft | 416 kts | 318° |
| 2026-05-06 00:50 | 33.54603 | -97.25245 | 33842 ft | 416 kts | 317° |
| 2026-05-06 00:50 | 33.59685 | -97.28555 | 33853 ft | 416 kts | 317° |
| 2026-05-06 00:51 | 33.64772 | -97.31872 | 33848 ft | 416 kts | 317° |
| 2026-05-06 00:51 | 33.69862 | -97.35195 | 33843 ft | 416 kts | 317° |
| 2026-05-06 00:52 | 33.74951 | -97.38522 | 33823 ft | 417 kts | 317° |
| 2026-05-06 00:52 | 33.80011 | -97.41834 | 33823 ft | 417 kts | 317° |
| 2026-05-06 00:53 | 33.85107 | -97.45175 | 33824 ft | 417 kts | 317° |
| 2026-05-06 00:53 | 33.90198 | -97.48516 | 33815 ft | 417 kts | 317° |
| 2026-05-06 00:54 | 33.95296 | -97.51867 | 33818 ft | 417 kts | 317° |
| 2026-05-06 00:54 | 34.00390 | -97.55220 | 33824 ft | 417 kts | 317° |
| 2026-05-06 00:55 | 34.05482 | -97.58577 | 33837 ft | 417 kts | 316° |
| 2026-05-06 00:55 | 34.10575 | -97.61938 | 33836 ft | 417 kts | 316° |
| 2026-05-06 00:56 | 34.15662 | -97.65300 | 33839 ft | 417 kts | 316° |
| 2026-05-06 00:56 | 34.20751 | -97.68668 | 33838 ft | 417 kts | 316° |
| 2026-05-06 00:57 | 34.25834 | -97.72037 | 33864 ft | 416 kts | 316° |
| 2026-05-06 00:57 | 34.30911 | -97.75407 | 33873 ft | 416 kts | 316° |
| 2026-05-06 00:58 | 34.35981 | -97.78777 | 33887 ft | 415 kts | 316° |
| 2026-05-06 00:58 | 34.41043 | -97.82145 | 33893 ft | 415 kts | 316° |
| 2026-05-06 00:59 | 34.46097 | -97.85514 | 33891 ft | 414 kts | 316° |
| 2026-05-06 00:59 | 34.51138 | -97.88878 | 33892 ft | 413 kts | 316° |
| 2026-05-06 01:00 | 34.56171 | -97.92242 | 33891 ft | 413 kts | 316° |
| 2026-05-06 01:00 | 34.61191 | -97.95602 | 33890 ft | 412 kts | 316° |
| 2026-05-06 01:01 | 34.66170 | -97.98940 | 33893 ft | 411 kts | 316° |
| 2026-05-06 01:01 | 34.71205 | -98.02320 | 33884 ft | 411 kts | 316° |
| 2026-05-06 01:02 | 34.76202 | -98.05679 | 33885 ft | 410 kts | 316° |
| 2026-05-06 01:02 | 34.81194 | -98.09046 | 33881 ft | 408 kts | 314° |
| 2026-05-06 01:02 | 34.83481 | -98.10958 | 33899 ft | 392 kts | 306° |
| 2026-05-06 01:03 | 34.85479 | -98.13137 | 33898 ft | 380 kts | 300° |
| 2026-05-06 01:03 | 34.88750 | -98.18016 | 33898 ft | 371 kts | 296° |
| 2026-05-06 01:04 | 34.91950 | -98.22902 | 33892 ft | 372 kts | 296° |
| 2026-05-06 01:04 | 34.95191 | -98.27828 | 33884 ft | 373 kts | 296° |
| 2026-05-06 01:05 | 34.98393 | -98.32698 | 33879 ft | 373 kts | 296° |
| 2026-05-06 01:05 | 35.01642 | -98.37648 | 33874 ft | 374 kts | 296° |
| 2026-05-06 01:06 | 35.04891 | -98.42604 | 33880 ft | 374 kts | 296° |
| 2026-05-06 01:06 | 35.08143 | -98.47575 | 33883 ft | 375 kts | 296° |
| 2026-05-06 01:07 | 35.11397 | -98.52554 | 33881 ft | 375 kts | 296° |
| 2026-05-06 01:07 | 35.14654 | -98.57544 | 33884 ft | 376 kts | 296° |
| 2026-05-06 01:08 | 35.17912 | -98.62546 | 33884 ft | 376 kts | 296° |
| 2026-05-06 01:08 | 35.21175 | -98.67560 | 33894 ft | 377 kts | 295° |
| 2026-05-06 01:09 | 35.24440 | -98.72585 | 33909 ft | 378 kts | 295° |
| 2026-05-06 01:09 | 35.27706 | -98.77620 | 33915 ft | 378 kts | 295° |
| 2026-05-06 01:10 | 35.30979 | -98.82672 | 33913 ft | 379 kts | 295° |
| 2026-05-06 01:10 | 35.34256 | -98.87739 | 33918 ft | 380 kts | 295° |
| 2026-05-06 01:11 | 35.37542 | -98.92825 | 33919 ft | 381 kts | 295° |
| 2026-05-06 01:11 | 35.40811 | -98.97893 | 33923 ft | 382 kts | 295° |
| 2026-05-06 01:12 | 35.44108 | -99.03014 | 33927 ft | 383 kts | 295° |
| 2026-05-06 01:12 | 35.47415 | -99.08156 | 33926 ft | 385 kts | 295° |
| 2026-05-06 01:13 | 35.50731 | -99.13319 | 33929 ft | 385 kts | 295° |
| 2026-05-06 01:13 | 35.54052 | -99.18498 | 33926 ft | 387 kts | 295° |
| 2026-05-06 01:14 | 35.59045 | -99.26300 | 33912 ft | 388 kts | 295° |
| 2026-05-06 01:14 | 35.62380 | -99.31521 | 33907 ft | 389 kts | 295° |
| 2026-05-06 01:15 | 35.65157 | -99.35875 | 33912 ft | 390 kts | 295° |
| 2026-05-06 01:15 | 35.68502 | -99.41126 | 33907 ft | 390 kts | 295° |
| 2026-05-06 01:16 | 35.71851 | -99.46383 | 33913 ft | 391 kts | 295° |
| 2026-05-06 01:16 | 35.75653 | -99.51304 | 33928 ft | 403 kts | 302° |
| 2026-05-06 01:17 | 35.79609 | -99.56031 | 33917 ft | 402 kts | 302° |
| 2026-05-06 01:17 | 35.83603 | -99.60834 | 33921 ft | 400 kts | 301° |
| 2026-05-06 01:18 | 35.87552 | -99.65622 | 33915 ft | 397 kts | 301° |
| 2026-05-06 01:18 | 35.91467 | -99.70392 | 33924 ft | 395 kts | 301° |
| 2026-05-06 01:19 | 35.95357 | -99.75143 | 33931 ft | 393 kts | 301° |
| 2026-05-06 01:19 | 35.99231 | -99.79884 | 33935 ft | 392 kts | 301° |
| 2026-05-06 01:20 | 36.03068 | -99.84586 | 33936 ft | 391 kts | 301° |
| 2026-05-06 01:20 | 36.06918 | -99.89309 | 33944 ft | 389 kts | 301° |
| 2026-05-06 01:21 | 36.10751 | -99.94018 | 33946 ft | 388 kts | 301° |
| 2026-05-06 01:21 | 36.14575 | -99.98724 | 33940 ft | 388 kts | 301° |
| 2026-05-06 01:22 | 36.18392 | -100.03429 | 33942 ft | 387 kts | 301° |
| 2026-05-06 01:22 | 36.22211 | -100.08143 | 33939 ft | 388 kts | 301° |
| 2026-05-06 01:23 | 36.26034 | -100.12868 | 33945 ft | 388 kts | 301° |
| 2026-05-06 01:23 | 36.29860 | -100.17604 | 33938 ft | 389 kts | 301° |
| 2026-05-06 01:24 | 36.33693 | -100.22354 | 33941 ft | 390 kts | 301° |
| 2026-05-06 01:24 | 36.37531 | -100.27118 | 33943 ft | 390 kts | 301° |
| 2026-05-06 01:25 | 36.41372 | -100.31890 | 33946 ft | 391 kts | 301° |
| 2026-05-06 01:25 | 36.45211 | -100.36669 | 33943 ft | 391 kts | 301° |
| 2026-05-06 01:26 | 36.49023 | -100.41421 | 33944 ft | 391 kts | 301° |
| 2026-05-06 01:26 | 36.52853 | -100.46202 | 33940 ft | 390 kts | 301° |
| 2026-05-06 01:27 | 36.56679 | -100.50985 | 33952 ft | 390 kts | 301° |
| 2026-05-06 01:27 | 36.60497 | -100.55766 | 33955 ft | 389 kts | 300° |
| 2026-05-06 01:28 | 36.64311 | -100.60550 | 33955 ft | 389 kts | 301° |
| 2026-05-06 01:28 | 36.68121 | -100.65336 | 33956 ft | 389 kts | 300° |
| 2026-05-06 01:29 | 36.71931 | -100.70128 | 33961 ft | 389 kts | 300° |
| 2026-05-06 01:29 | 36.75737 | -100.74923 | 33960 ft | 389 kts | 300° |
| 2026-05-06 01:30 | 36.79539 | -100.79720 | 33969 ft | 389 kts | 300° |
| 2026-05-06 01:30 | 36.83338 | -100.84520 | 33980 ft | 389 kts | 300° |
| 2026-05-06 01:31 | 36.87141 | -100.89333 | 33987 ft | 389 kts | 300° |
| 2026-05-06 01:31 | 36.90934 | -100.94140 | 33982 ft | 389 kts | 300° |
| 2026-05-06 01:32 | 36.94725 | -100.98951 | 33987 ft | 388 kts | 300° |
| 2026-05-06 01:32 | 36.98510 | -101.03762 | 33987 ft | 388 kts | 300° |
| 2026-05-06 01:33 | 37.02288 | -101.08571 | 33991 ft | 387 kts | 300° |
| 2026-05-06 01:33 | 37.06060 | -101.13380 | 33985 ft | 387 kts | 300° |
| 2026-05-06 01:34 | 37.09822 | -101.18184 | 33977 ft | 386 kts | 300° |
| 2026-05-06 01:34 | 37.13574 | -101.22982 | 33976 ft | 385 kts | 300° |
| 2026-05-06 01:35 | 37.17320 | -101.27780 | 33974 ft | 384 kts | 300° |
| 2026-05-06 01:35 | 37.21053 | -101.32569 | 33975 ft | 384 kts | 300° |
| 2026-05-06 01:36 | 37.24781 | -101.37358 | 33979 ft | 383 kts | 300° |
| 2026-05-06 01:36 | 37.28475 | -101.42111 | 33978 ft | 383 kts | 300° |
| 2026-05-06 01:37 | 37.32186 | -101.46894 | 33971 ft | 382 kts | 300° |
| 2026-05-06 01:37 | 37.35892 | -101.51675 | 33970 ft | 382 kts | 299° |
| 2026-05-06 01:38 | 37.39591 | -101.56456 | 33969 ft | 381 kts | 299° |
| 2026-05-06 01:38 | 37.43288 | -101.61242 | 33971 ft | 381 kts | 299° |
| 2026-05-06 01:39 | 37.46981 | -101.66030 | 33975 ft | 381 kts | 299° |
| 2026-05-06 01:39 | 37.50671 | -101.70821 | 33975 ft | 381 kts | 299° |
| 2026-05-06 01:40 | 37.54361 | -101.75620 | 33978 ft | 381 kts | 299° |
| 2026-05-06 01:40 | 37.58050 | -101.80424 | 33982 ft | 381 kts | 299° |
| 2026-05-06 01:41 | 37.61735 | -101.85230 | 33982 ft | 381 kts | 299° |
| 2026-05-06 01:41 | 37.65374 | -101.89984 | 33978 ft | 381 kts | 299° |
| 2026-05-06 01:42 | 37.69057 | -101.94802 | 33976 ft | 381 kts | 299° |
| 2026-05-06 01:42 | 37.72737 | -101.99624 | 33971 ft | 381 kts | 299° |
| 2026-05-06 01:43 | 37.76411 | -102.04444 | 33966 ft | 381 kts | 299° |
| 2026-05-06 01:43 | 37.80080 | -102.09267 | 33967 ft | 380 kts | 299° |
| 2026-05-06 01:44 | 37.83715 | -102.14055 | 33966 ft | 379 kts | 299° |
| 2026-05-06 01:44 | 37.87316 | -102.18905 | 33969 ft | 378 kts | 298° |
| 2026-05-06 01:45 | 37.90897 | -102.23767 | 33970 ft | 377 kts | 298° |
| 2026-05-06 01:45 | 37.94473 | -102.28622 | 33980 ft | 377 kts | 298° |
| 2026-05-06 01:46 | 37.98045 | -102.33474 | 33968 ft | 376 kts | 298° |
| 2026-05-06 01:46 | 38.01612 | -102.38324 | 33970 ft | 376 kts | 298° |
| 2026-05-06 01:47 | 38.05178 | -102.43180 | 33977 ft | 376 kts | 298° |
| 2026-05-06 01:47 | 38.08738 | -102.48035 | 33978 ft | 376 kts | 298° |
| 2026-05-06 01:48 | 38.12295 | -102.52895 | 33974 ft | 376 kts | 298° |
| 2026-05-06 01:48 | 38.15852 | -102.57760 | 33972 ft | 376 kts | 298° |
| 2026-05-06 01:49 | 38.17645 | -102.60223 | 33545 ft | 384 kts | 299° |
| 2026-05-06 01:49 | 38.19462 | -102.62719 | 33169 ft | 385 kts | 300° |
| 2026-05-06 01:49 | 38.21284 | -102.65213 | 32738 ft | 385 kts | 300° |
| 2026-05-06 01:49 | 38.23111 | -102.67719 | 32291 ft | 389 kts | 301° |
| 2026-05-06 01:50 | 38.24934 | -102.70226 | 31854 ft | 392 kts | 301° |
| 2026-05-06 01:50 | 38.26821 | -102.72825 | 31407 ft | 396 kts | 302° |
| 2026-05-06 01:50 | 38.28676 | -102.75380 | 30984 ft | 400 kts | 302° |
| 2026-05-06 01:50 | 38.30577 | -102.77999 | 30548 ft | 405 kts | 303° |
| 2026-05-06 01:51 | 38.32052 | -102.80032 | 30229 ft | 408 kts | 303° |
| 2026-05-06 01:51 | 38.33985 | -102.82699 | 29766 ft | 412 kts | 303° |
| 2026-05-06 01:51 | 38.35941 | -102.85397 | 29272 ft | 416 kts | 304° |
| 2026-05-06 01:51 | 38.37912 | -102.88118 | 28790 ft | 420 kts | 304° |
| 2026-05-06 01:52 | 38.39898 | -102.90861 | 28313 ft | 423 kts | 304° |
| 2026-05-06 01:52 | 38.41902 | -102.93633 | 27816 ft | 426 kts | 305° |
| 2026-05-06 01:52 | 38.43921 | -102.96429 | 27299 ft | 430 kts | 305° |
| 2026-05-06 01:52 | 38.45951 | -102.99242 | 26797 ft | 433 kts | 306° |
| 2026-05-06 01:53 | 38.48000 | -103.02084 | 26296 ft | 436 kts | 306° |
| 2026-05-06 01:53 | 38.50054 | -103.04935 | 25804 ft | 437 kts | 306° |
| 2026-05-06 01:53 | 38.52118 | -103.07801 | 25322 ft | 438 kts | 307° |
| 2026-05-06 01:53 | 38.54168 | -103.10649 | 24836 ft | 433 kts | 307° |
| 2026-05-06 01:54 | 38.56193 | -103.13463 | 24368 ft | 428 kts | 307° |
| 2026-05-06 01:54 | 38.58193 | -103.16248 | 23907 ft | 424 kts | 307° |
| 2026-05-06 01:54 | 38.60186 | -103.19028 | 23429 ft | 423 kts | 308° |
| 2026-05-06 01:54 | 38.62167 | -103.21796 | 22897 ft | 421 kts | 308° |
| 2026-05-06 01:55 | 38.64141 | -103.24556 | 22364 ft | 420 kts | 308° |
| 2026-05-06 01:55 | 38.66106 | -103.27305 | 21845 ft | 418 kts | 308° |
| 2026-05-06 01:55 | 38.68060 | -103.30042 | 21313 ft | 415 kts | 308° |
| 2026-05-06 01:55 | 38.70002 | -103.32763 | 20827 ft | 412 kts | 308° |
| 2026-05-06 01:56 | 38.71928 | -103.35465 | 20331 ft | 409 kts | 308° |
| 2026-05-06 01:56 | 38.73827 | -103.38129 | 20069 ft | 403 kts | 308° |
| 2026-05-06 01:56 | 38.75717 | -103.40788 | 20035 ft | 403 kts | 308° |
| 2026-05-06 01:56 | 38.77598 | -103.43433 | 19996 ft | 400 kts | 308° |
| 2026-05-06 01:57 | 38.79470 | -103.46069 | 19998 ft | 400 kts | 308° |
| 2026-05-06 01:57 | 38.81325 | -103.48680 | 19975 ft | 389 kts | 308° |
| 2026-05-06 01:57 | 38.83105 | -103.51181 | 19971 ft | 370 kts | 307° |
| 2026-05-06 01:57 | 38.84754 | -103.53502 | 19973 ft | 353 kts | 307° |
| 2026-05-06 01:58 | 38.86382 | -103.55802 | 19974 ft | 345 kts | 307° |
| 2026-05-06 01:58 | 38.87990 | -103.58084 | 19996 ft | 346 kts | 307° |
| 2026-05-06 01:58 | 38.89605 | -103.60381 | 20001 ft | 347 kts | 307° |
| 2026-05-06 01:58 | 38.91227 | -103.62688 | 20001 ft | 348 kts | 307° |
| 2026-05-06 01:59 | 38.92831 | -103.64969 | 19996 ft | 349 kts | 307° |
| 2026-05-06 01:59 | 38.94462 | -103.67287 | 19995 ft | 350 kts | 307° |
| 2026-05-06 01:59 | 38.96093 | -103.69605 | 19991 ft | 350 kts | 307° |
| 2026-05-06 01:59 | 38.97727 | -103.71930 | 19991 ft | 350 kts | 307° |
| 2026-05-06 02:00 | 38.99357 | -103.74248 | 19985 ft | 349 kts | 307° |
| 2026-05-06 02:00 | 39.00983 | -103.76564 | 19988 ft | 349 kts | 307° |
| 2026-05-06 02:00 | 39.02606 | -103.78879 | 19987 ft | 348 kts | 307° |
| 2026-05-06 02:00 | 39.04225 | -103.81189 | 19987 ft | 347 kts | 307° |
| 2026-05-06 02:01 | 39.05481 | -103.82984 | 19987 ft | 347 kts | 307° |
| 2026-05-06 02:01 | 39.07055 | -103.85234 | 19984 ft | 346 kts | 307° |
| 2026-05-06 02:01 | 39.08667 | -103.87537 | 19986 ft | 346 kts | 307° |
| 2026-05-06 02:01 | 39.10296 | -103.89814 | 19971 ft | 345 kts | 305° |
| 2026-05-06 02:02 | 39.11801 | -103.92219 | 19908 ft | 345 kts | 303° |
| 2026-05-06 02:02 | 39.13333 | -103.94599 | 19938 ft | 346 kts | 307° |
| 2026-05-06 02:02 | 39.14971 | -103.96926 | 19411 ft | 353 kts | 308° |
| 2026-05-06 02:02 | 39.16636 | -103.99241 | 18957 ft | 350 kts | 308° |
| 2026-05-06 02:03 | 39.18277 | -104.01543 | 18488 ft | 348 kts | 307° |
| 2026-05-06 02:03 | 39.19898 | -104.03845 | 17988 ft | 345 kts | 307° |
| 2026-05-06 02:03 | 39.21495 | -104.06138 | 17446 ft | 342 kts | 307° |
| 2026-05-06 02:03 | 39.23056 | -104.08393 | 16910 ft | 332 kts | 307° |
| 2026-05-06 02:04 | 39.24575 | -104.10593 | 16388 ft | 324 kts | 307° |
| 2026-05-06 02:04 | 39.26049 | -104.12732 | 16032 ft | 312 kts | 307° |
| 2026-05-06 02:04 | 39.27446 | -104.14757 | 15962 ft | 295 kts | 307° |
| 2026-05-06 02:04 | 39.28791 | -104.16712 | 15949 ft | 288 kts | 306° |
| 2026-05-06 02:05 | 39.30004 | -104.18744 | 15883 ft | 284 kts | 293° |
| 2026-05-06 02:05 | 39.30595 | -104.21184 | 15388 ft | 287 kts | 278° |
| 2026-05-06 02:05 | 39.30963 | -104.23725 | 14906 ft | 288 kts | 279° |
| 2026-05-06 02:05 | 39.31361 | -104.26250 | 14424 ft | 286 kts | 279° |
| 2026-05-06 02:06 | 39.31763 | -104.28753 | 13936 ft | 284 kts | 279° |
| 2026-05-06 02:06 | 39.32161 | -104.31237 | 13442 ft | 281 kts | 279° |
| 2026-05-06 02:06 | 39.32545 | -104.33639 | 13042 ft | 282 kts | 279° |
| 2026-05-06 02:06 | 39.32941 | -104.36126 | 12992 ft | 285 kts | 279° |
| 2026-05-06 02:07 | 39.33335 | -104.38604 | 12943 ft | 284 kts | 279° |
| 2026-05-06 02:07 | 39.33729 | -104.41088 | 12940 ft | 281 kts | 279° |
| 2026-05-06 02:07 | 39.34121 | -104.43569 | 12926 ft | 283 kts | 279° |
| 2026-05-06 02:07 | 39.34516 | -104.46076 | 12596 ft | 289 kts | 279° |
| 2026-05-06 02:08 | 39.34914 | -104.48614 | 12127 ft | 285 kts | 279° |
| 2026-05-06 02:08 | 39.35301 | -104.51076 | 11965 ft | 270 kts | 279° |
| 2026-05-06 02:08 | 39.35661 | -104.53368 | 11930 ft | 251 kts | 279° |
| 2026-05-06 02:08 | 39.35996 | -104.55508 | 11926 ft | 239 kts | 279° |
| 2026-05-06 02:09 | 39.36323 | -104.57606 | 11955 ft | 239 kts | 279° |
| 2026-05-06 02:09 | 39.36650 | -104.59715 | 11966 ft | 239 kts | 279° |
| 2026-05-06 02:09 | 39.36976 | -104.61823 | 11967 ft | 239 kts | 280° |
| 2026-05-06 02:09 | 39.37552 | -104.63854 | 11715 ft | 249 kts | 300° |
| 2026-05-06 02:10 | 39.38839 | -104.65354 | 11224 ft | 257 kts | 338° |
| 2026-05-06 02:10 | 39.40588 | -104.65606 | 11047 ft | 253 kts | 0° |
| 2026-05-06 02:10 | 39.42314 | -104.65969 | 10971 ft | 251 kts | 328° |
| 2026-05-06 02:10 | 39.43657 | -104.67222 | 11013 ft | 245 kts | 324° |
| 2026-05-06 02:11 | 39.45264 | -104.67894 | 10997 ft | 248 kts | 4° |
| 2026-05-06 02:11 | 39.46956 | -104.67328 | 11004 ft | 257 kts | 18° |
| 2026-05-06 02:11 | 39.48665 | -104.66619 | 10986 ft | 259 kts | 15° |
| 2026-05-06 02:11 | 39.50418 | -104.66315 | 10994 ft | 248 kts | 356° |
| 2026-05-06 02:12 | 39.52097 | -104.66392 | 10968 ft | 236 kts | 358° |
| 2026-05-06 02:12 | 39.53722 | -104.66395 | 10991 ft | 235 kts | 359° |
| 2026-05-06 02:12 | 39.55388 | -104.66382 | 10841 ft | 248 kts | 359° |
| 2026-05-06 02:12 | 39.57135 | -104.66364 | 10494 ft | 249 kts | 0° |
| 2026-05-06 02:13 | 39.58846 | -104.66344 | 10146 ft | 242 kts | 1° |
| 2026-05-06 02:13 | 39.60505 | -104.66323 | 9768 ft | 236 kts | 2° |
| 2026-05-06 02:13 | 39.62125 | -104.66303 | 9328 ft | 231 kts | 2° |
| 2026-05-06 02:13 | 39.63714 | -104.66284 | 8903 ft | 226 kts | 2° |
| 2026-05-06 02:14 | 39.65263 | -104.66266 | 8521 ft | 219 kts | 2° |
| 2026-05-06 02:14 | 39.66771 | -104.66248 | 8103 ft | 215 kts | 2° |
| 2026-05-06 02:14 | 39.68257 | -104.66231 | 7680 ft | 211 kts | 2° |
| 2026-05-06 02:14 | 39.69708 | -104.66213 | 7279 ft | 206 kts | 2° |
| 2026-05-06 02:15 | 39.71122 | -104.66197 | 7009 ft | 197 kts | 3° |
| 2026-05-06 02:15 | 39.72461 | -104.66180 | 7010 ft | 195 kts | 3° |
| 2026-05-06 02:15 | 39.73819 | -104.66164 | 7001 ft | 194 kts | 3° |
| 2026-05-06 02:15 | 39.75176 | -104.66147 | 6987 ft | 197 kts | 3° |
| 2026-05-06 02:16 | 39.76565 | -104.66129 | 6706 ft | 198 kts | 2° |
| 2026-05-06 02:16 | 39.77934 | -104.66113 | 6449 ft | 196 kts | 2° |
| 2026-05-06 02:16 | 39.79189 | -104.66098 | 6181 ft | 189 kts | 1° |
| 2026-05-06 02:16 | 39.80513 | -104.66082 | 5961 ft | 187 kts | 1° |
| 2026-05-06 02:17 | 39.81798 | -104.66067 | 5718 ft | 188 kts | 0° |
| 2026-05-06 02:17 | 39.83100 | -104.66051 | 5473 ft | 185 kts | 0° |
| 2026-05-06 02:17 | 39.84338 | -104.66039 | 5547 ft | 183 kts | 0° |
| 2026-05-06 02:17 | 39.85719 | -104.66014 | 5792 ft | 203 kts | 1° |
| 2026-05-06 02:18 | 39.87057 | -104.65985 | 6587 ft | 185 kts | 3° |
| 2026-05-06 02:18 | 39.88342 | -104.65957 | 7158 ft | 190 kts | 3° |
| 2026-05-06 02:18 | 39.89681 | -104.65932 | 7575 ft | 194 kts | 2° |
| 2026-05-06 02:18 | 39.91077 | -104.65930 | 8017 ft | 207 kts | 1° |
| 2026-05-06 02:19 | 39.92565 | -104.65922 | 8494 ft | 221 kts | 1° |
| 2026-05-06 02:19 | 39.94161 | -104.65900 | 8911 ft | 243 kts | 1° |
| 2026-05-06 02:19 | 39.95951 | -104.65863 | 9019 ft | 263 kts | 1° |
| 2026-05-06 02:19 | 39.97754 | -104.66192 | 9006 ft | 264 kts | 336° |
| 2026-05-06 02:20 | 40.00039 | -104.69741 | 9019 ft | 264 kts | 278° |
| 2026-05-06 02:20 | 40.00153 | -104.72117 | 9019 ft | 264 kts | 269° |
| 2026-05-06 02:20 | 40.00131 | -104.74480 | 9017 ft | 264 kts | 268° |
| 2026-05-06 02:21 | 40.00092 | -104.76883 | 9012 ft | 265 kts | 268° |
| 2026-05-06 02:21 | 40.00048 | -104.79282 | 9012 ft | 265 kts | 268° |
| 2026-05-06 02:21 | 40.00001 | -104.81684 | 9003 ft | 264 kts | 267° |
| 2026-05-06 02:21 | 39.99954 | -104.84079 | 9013 ft | 264 kts | 268° |
| 2026-05-06 02:22 | 39.99815 | -104.86445 | 9006 ft | 261 kts | 254° |
| 2026-05-06 02:22 | 39.98974 | -104.88500 | 9021 ft | 256 kts | 224° |
| 2026-05-06 02:22 | 39.97540 | -104.89699 | 9020 ft | 252 kts | 195° |
| 2026-05-06 02:22 | 39.95810 | -104.89956 | 9050 ft | 252 kts | 179° |
| 2026-05-06 02:23 | 39.94035 | -104.89916 | 9030 ft | 257 kts | 178° |
| 2026-05-06 02:23 | 39.92239 | -104.89843 | 9021 ft | 258 kts | 178° |
| 2026-05-06 02:23 | 39.90451 | -104.89762 | 9008 ft | 256 kts | 178° |
| 2026-05-06 02:23 | 39.88677 | -104.89679 | 9007 ft | 255 kts | 178° |
| 2026-05-06 02:24 | 39.86911 | -104.89595 | 8997 ft | 253 kts | 177° |
| 2026-05-06 02:24 | 39.85157 | -104.89514 | 8999 ft | 252 kts | 177° |
| 2026-05-06 02:24 | 39.83398 | -104.89434 | 9007 ft | 252 kts | 177° |
| 2026-05-06 02:24 | 39.81644 | -104.89356 | 8993 ft | 252 kts | 177° |
| 2026-05-06 02:25 | 39.79888 | -104.89279 | 8991 ft | 253 kts | 177° |
| 2026-05-06 02:25 | 39.78123 | -104.89204 | 8993 ft | 255 kts | 178° |
| 2026-05-06 02:25 | 39.76349 | -104.89129 | 8989 ft | 256 kts | 177° |
| 2026-05-06 02:25 | 39.74565 | -104.89056 | 9004 ft | 257 kts | 177° |
| 2026-05-06 02:26 | 39.72777 | -104.88986 | 9001 ft | 258 kts | 178° |
| 2026-05-06 02:26 | 39.70979 | -104.88916 | 8992 ft | 259 kts | 177° |
| 2026-05-06 02:26 | 39.69184 | -104.88810 | 8989 ft | 258 kts | 169° |
| 2026-05-06 02:26 | 39.67557 | -104.87912 | 8986 ft | 255 kts | 140° |
| 2026-05-06 02:27 | 39.66498 | -104.86105 | 8991 ft | 255 kts | 111° |
| 2026-05-06 02:27 | 39.66221 | -104.83847 | 9011 ft | 254 kts | 90° |
| 2026-05-06 02:27 | 39.66275 | -104.81547 | 8994 ft | 256 kts | 88° |
| 2026-05-06 02:27 | 39.66367 | -104.79258 | 8981 ft | 251 kts | 88° |
| 2026-05-06 02:28 | 39.66467 | -104.77010 | 8712 ft | 252 kts | 88° |
| 2026-05-06 02:28 | 39.66568 | -104.74724 | 8308 ft | 254 kts | 87° |
| 2026-05-06 02:28 | 39.66884 | -104.72534 | 7994 ft | 252 kts | 64° |
| 2026-05-06 02:28 | 39.67907 | -104.70788 | 7987 ft | 239 kts | 45° |
| 2026-05-06 02:29 | 39.69257 | -104.69639 | 7955 ft | 233 kts | 15° |
| 2026-05-06 02:29 | 39.70914 | -104.69496 | 7541 ft | 245 kts | 0° |
| 2026-05-06 02:29 | 39.72634 | -104.69443 | 7123 ft | 249 kts | 5° |
| 2026-05-06 02:29 | 39.74322 | -104.69273 | 7051 ft | 236 kts | 6° |
| 2026-05-06 02:30 | 39.75929 | -104.69083 | 7010 ft | 230 kts | 7° |
| 2026-05-06 02:30 | 39.77492 | -104.68891 | 6988 ft | 223 kts | 7° |
| 2026-05-06 02:30 | 39.79062 | -104.68789 | 6848 ft | 231 kts | 2° |
| 2026-05-06 02:30 | 39.80638 | -104.68783 | 6563 ft | 219 kts | 2° |
| 2026-05-06 02:31 | 39.82105 | -104.68769 | 6255 ft | 201 kts | 2° |
| 2026-05-06 02:31 | 39.83453 | -104.68753 | 5965 ft | 189 kts | 1° |
| 2026-05-06 02:31 | 39.84720 | -104.68738 | 5756 ft | 175 kts | 0° |
| 2026-05-06 02:31 | 39.85895 | -104.68725 | 5533 ft | 162 kts | 0° |
| 2026-05-06 02:32 | 39.86948 | -104.68724 | 5360 ft | 139 kts | 360° |
| 2026-05-06 02:32 | 39.87715 | -104.68709 | 5364 ft | 80 kts | 1° |
| 2026-05-06 02:32 | 39.88072 | -104.68700 | 5363 ft | 37 kts | 1° |
| 2026-05-06 02:32 | 39.88399 | -104.68675 | 5356 ft | 49 kts | 9° |
| 2026-05-06 02:33 | 39.88595 | -104.68531 | 5357 ft | 19 kts | 82° |
| 2026-05-06 02:33 | 39.88566 | -104.68489 | 5357 ft | 0 kts | 169° |
| 2026-05-06 02:34 | 39.88563 | -104.68488 | 5357 ft | 4 kts | 170° |
| 2026-05-06 02:34 | 39.88477 | -104.68479 | 5356 ft | 15 kts | 178° |
| 2026-05-06 02:34 | 39.88376 | -104.68480 | 5356 ft | 15 kts | 184° |
| 2026-05-06 02:35 | 39.88279 | -104.68484 | 5358 ft | 14 kts | 181° |
| 2026-05-06 02:35 | 39.88187 | -104.68483 | 5358 ft | 13 kts | 183° |
| 2026-05-06 02:35 | 39.88074 | -104.68485 | 5358 ft | 17 kts | 179° |
| 2026-05-06 02:35 | 39.87955 | -104.68486 | 5360 ft | 17 kts | 180° |
| 2026-05-06 02:36 | 39.87831 | -104.68487 | 5360 ft | 18 kts | 183° |
| 2026-05-06 02:36 | 39.87707 | -104.68496 | 5362 ft | 18 kts | 182° |
| 2026-05-06 02:36 | 39.87582 | -104.68500 | 5362 ft | 20 kts | 179° |
| 2026-05-06 02:36 | 39.87435 | -104.68494 | 5360 ft | 23 kts | 178° |
| 2026-05-06 02:37 | 39.87269 | -104.68494 | 5359 ft | 24 kts | 179° |
| 2026-05-06 02:37 | 39.87098 | -104.68493 | 5360 ft | 26 kts | 179° |
| 2026-05-06 02:37 | 39.86916 | -104.68496 | 5359 ft | 25 kts | 181° |
| 2026-05-06 02:37 | 39.86744 | -104.68501 | 5363 ft | 24 kts | 181° |
| 2026-05-06 02:38 | 39.86584 | -104.68504 | 5364 ft | 23 kts | 181° |
| 2026-05-06 02:38 | 39.86428 | -104.68507 | 5366 ft | 22 kts | 180° |
| 2026-05-06 02:38 | 39.86276 | -104.68510 | 5364 ft | 21 kts | 181° |
| 2026-05-06 02:38 | 39.86144 | -104.68459 | 5364 ft | 21 kts | 122° |
| 2026-05-06 02:39 | 39.86136 | -104.68273 | 5375 ft | 20 kts | 89° |
| 2026-05-06 02:39 | 39.86134 | -104.68093 | 5385 ft | 20 kts | 91° |
| 2026-05-06 02:39 | 39.86103 | -104.67927 | 5386 ft | 19 kts | 115° |
| 2026-05-06 02:39 | 39.86023 | -104.67796 | 5386 ft | 18 kts | 126° |
| 2026-05-06 02:40 | 39.86003 | -104.67638 | 5385 ft | 18 kts | 97° |
| 2026-05-06 02:40 | 39.85948 | -104.67576 | 5385 ft | 4 kts | 175° |
| 2026-05-06 02:40 | 39.85938 | -104.67575 | 5386 ft | 0 kts | 179° |